East Sandwich, Massachusetts
Current Conditions -  °F | °C
As of 10:35 PM on Friday 19 Dec 2014 (Local Time) from KFMH Reporting Station
Overcast Overcast  
Wind Chill: 26°   Ceiling: 3100
Heat Index: 32°   Visibility: 10mi
Dew Point: 21°   Wind: 7mph
Humidity: 64%   Direction: 350°N
Pressure: 30.11"   Gusts: 15mph
Location:  41.74°N, 70.43°W
Report Text: KFMH 200335Z AUTO 35006G13KT 10SM OVC031 M00/M06 A3011 RMK AO2
Loading
Personal Weather Stations






























Interactive Weather Map New forecast layout! Learn more

10-Day Weather Forecast

Advertisements
Track Severe Weather on mobile